sensor_id;sensor_type;location;lat;lon;timestamp;temperature;humidity
24091;DHT22;12272;52.426;17.100;2023-05-10T00:01:54;10.10;90.20
24091;DHT22;12272;52.426;17.100;2023-05-10T00:08:12;10.00;85.90
24091;DHT22;12272;52.426;17.100;2023-05-10T00:13:14;9.80;78.70
24091;DHT22;12272;52.426;17.100;2023-05-10T00:18:17;9.90;82.50
24091;DHT22;12272;52.426;17.100;2023-05-10T00:23:19;9.80;78.40
24091;DHT22;12272;52.426;17.100;2023-05-10T00:28:22;10.00;87.60
24091;DHT22;12272;52.426;17.100;2023-05-10T00:33:24;9.90;86.90
24091;DHT22;12272;52.426;17.100;2023-05-10T00:38:27;9.90;83.20
24091;DHT22;12272;52.426;17.100;2023-05-10T00:43:29;10.00;89.70
24091;DHT22;12272;52.426;17.100;2023-05-10T00:48:32;10.10;91.90
24091;DHT22;12272;52.426;17.100;2023-05-10T00:53:35;10.00;79.00
24091;DHT22;12272;52.426;17.100;2023-05-10T00:58:39;10.20;77.50
24091;DHT22;12272;52.426;17.100;2023-05-10T01:03:42;10.20;86.50
24091;DHT22;12272;52.426;17.100;2023-05-10T01:08:45;10.50;82.90
24091;DHT22;12272;52.426;17.100;2023-05-10T01:13:55;10.50;73.40
24091;DHT22;12272;52.426;17.100;2023-05-10T01:18:58;10.60;72.80
24091;DHT22;12272;52.426;17.100;2023-05-10T01:24:25;10.50;73.20
24091;DHT22;12272;52.426;17.100;2023-05-10T01:51:07;10.00;84.90
24091;DHT22;12272;52.426;17.100;2023-05-10T01:56:12;9.90;80.80
24091;DHT22;12272;52.426;17.100;2023-05-10T02:01:15;9.70;82.80
24091;DHT22;12272;52.426;17.100;2023-05-10T02:06:20;9.60;82.60
24091;DHT22;12272;52.426;17.100;2023-05-10T02:11:25;9.50;84.90
24091;DHT22;12272;52.426;17.100;2023-05-10T02:16:28;9.50;88.00
24091;DHT22;12272;52.426;17.100;2023-05-10T02:21:35;9.40;83.10
24091;DHT22;12272;52.426;17.100;2023-05-10T02:26:38;9.20;85.10
24091;DHT22;12272;52.426;17.100;2023-05-10T02:31:41;9.00;86.40
24091;DHT22;12272;52.426;17.100;2023-05-10T02:36:45;8.80;85.60
24091;DHT22;12272;52.426;17.100;2023-05-10T02:41:49;9.00;91.00
24091;DHT22;12272;52.426;17.100;2023-05-10T02:46:52;9.00;86.00
24091;DHT22;12272;52.426;17.100;2023-05-10T02:51:58;9.00;91.30
24091;DHT22;12272;52.426;17.100;2023-05-10T02:57:04;8.90;87.80
24091;DHT22;12272;52.426;17.100;2023-05-10T03:02:08;8.70;92.00
24091;DHT22;12272;52.426;17.100;2023-05-10T03:07:11;8.50;90.60
24091;DHT22;12272;52.426;17.100;2023-05-10T03:12:31;8.40;91.90
24091;DHT22;12272;52.426;17.100;2023-05-10T03:17:45;8.40;90.70
24091;DHT22;12272;52.426;17.100;2023-05-10T03:22:55;8.50;93.00
24091;DHT22;12272;52.426;17.100;2023-05-10T03:28:01;8.60;94.50
24091;DHT22;12272;52.426;17.100;2023-05-10T03:33:05;8.70;92.50
24091;DHT22;12272;52.426;17.100;2023-05-10T03:38:12;8.70;95.10
24091;DHT22;12272;52.426;17.100;2023-05-10T03:43:15;8.50;90.60
24091;DHT22;12272;52.426;17.100;2023-05-10T03:48:18;8.40;92.70
24091;DHT22;12272;52.426;17.100;2023-05-10T03:53:23;8.30;91.20
24091;DHT22;12272;52.426;17.100;2023-05-10T03:58:25;8.30;91.50
24091;DHT22;12272;52.426;17.100;2023-05-10T04:03:28;8.60;95.30
24091;DHT22;12272;52.426;17.100;2023-05-10T04:08:31;8.60;95.00
24091;DHT22;12272;52.426;17.100;2023-05-10T04:13:34;8.60;93.60
24091;DHT22;12272;52.426;17.100;2023-05-10T04:18:37;8.70;93.00
24091;DHT22;12272;52.426;17.100;2023-05-10T04:23:39;8.80;93.20
24091;DHT22;12272;52.426;17.100;2023-05-10T04:28:42;8.80;91.90
24091;DHT22;12272;52.426;17.100;2023-05-10T04:33:44;8.90;92.40
24091;DHT22;12272;52.426;17.100;2023-05-10T04:38:47;8.90;93.00
24091;DHT22;12272;52.426;17.100;2023-05-10T04:43:50;9.30;92.00
24091;DHT22;12272;52.426;17.100;2023-05-10T04:48:52;9.30;92.60
24091;DHT22;12272;52.426;17.100;2023-05-10T04:53:55;9.50;96.50
24091;DHT22;12272;52.426;17.100;2023-05-10T04:59:07;9.90;93.70
24091;DHT22;12272;52.426;17.100;2023-05-10T05:04:10;10.10;96.20
24091;DHT22;12272;52.426;17.100;2023-05-10T05:09:12;10.50;91.60
24091;DHT22;12272;52.426;17.100;2023-05-10T05:14:14;10.40;84.90
24091;DHT22;12272;52.426;17.100;2023-05-10T05:19:17;10.70;90.30
24091;DHT22;12272;52.426;17.100;2023-05-10T05:24:19;10.90;86.00
24091;DHT22;12272;52.426;17.100;2023-05-10T05:29:22;11.00;85.50
24091;DHT22;12272;52.426;17.100;2023-05-10T05:34:24;11.30;91.40
24091;DHT22;12272;52.426;17.100;2023-05-10T05:39:28;11.70;90.10
24091;DHT22;12272;52.426;17.100;2023-05-10T05:44:30;11.80;83.00
24091;DHT22;12272;52.426;17.100;2023-05-10T05:49:33;11.80;84.50
24091;DHT22;12272;52.426;17.100;2023-05-10T05:54:35;12.20;86.50
24091;DHT22;12272;52.426;17.100;2023-05-10T05:59:38;12.70;83.40
24091;DHT22;12272;52.426;17.100;2023-05-10T06:04:45;12.80;73.20
24091;DHT22;12272;52.426;17.100;2023-05-10T06:14:51;13.10;81.80
24091;DHT22;12272;52.426;17.100;2023-05-10T06:19:54;13.20;77.40
24091;DHT22;12272;52.426;17.100;2023-05-10T06:24:56;13.30;69.40
24091;DHT22;12272;52.426;17.100;2023-05-10T06:29:59;13.60;75.50
24091;DHT22;12272;52.426;17.100;2023-05-10T06:35:14;13.60;72.40
24091;DHT22;12272;52.426;17.100;2023-05-10T06:40:17;13.70;69.60
24091;DHT22;12272;52.426;17.100;2023-05-10T06:45:20;14.10;69.40
24091;DHT22;12272;52.426;17.100;2023-05-10T06:50:22;14.30;62.00
24091;DHT22;12272;52.426;17.100;2023-05-10T06:55:25;14.40;57.00
24091;DHT22;12272;52.426;17.100;2023-05-10T07:00:28;14.60;53.90
24091;DHT22;12272;52.426;17.100;2023-05-10T07:05:31;14.70;51.70
24091;DHT22;12272;52.426;17.100;2023-05-10T07:10:33;14.70;50.80
24091;DHT22;12272;52.426;17.100;2023-05-10T07:15:36;15.00;49.60
24091;DHT22;12272;52.426;17.100;2023-05-10T07:20:38;15.10;49.90
24091;DHT22;12272;52.426;17.100;2023-05-10T07:25:41;15.40;48.10
24091;DHT22;12272;52.426;17.100;2023-05-10T07:30:43;15.60;47.30
24091;DHT22;12272;52.426;17.100;2023-05-10T07:35:46;15.80;45.90
24091;DHT22;12272;52.426;17.100;2023-05-10T07:40:49;16.00;45.80
24091;DHT22;12272;52.426;17.100;2023-05-10T07:45:51;16.10;43.10
24091;DHT22;12272;52.426;17.100;2023-05-10T07:50:57;16.20;43.00
24091;DHT22;12272;52.426;17.100;2023-05-10T07:56:23;16.40;41.10
24091;DHT22;12272;52.426;17.100;2023-05-10T08:01:30;16.50;41.00
24091;DHT22;12272;52.426;17.100;2023-05-10T08:06:33;16.60;38.90
24091;DHT22;12272;52.426;17.100;2023-05-10T08:11:36;16.60;38.90
24091;DHT22;12272;52.426;17.100;2023-05-10T08:16:38;16.70;37.00
24091;DHT22;12272;52.426;17.100;2023-05-10T08:21:41;16.80;40.20
24091;DHT22;12272;52.426;17.100;2023-05-10T08:26:44;16.90;38.00
24091;DHT22;12272;52.426;17.100;2023-05-10T08:31:47;17.00;39.00
24091;DHT22;12272;52.426;17.100;2023-05-10T08:36:49;17.10;38.20
24091;DHT22;12272;52.426;17.100;2023-05-10T08:41:54;17.20;35.90
24091;DHT22;12272;52.426;17.100;2023-05-10T08:46:59;17.20;35.00
24091;DHT22;12272;52.426;17.100;2023-05-10T08:52:04;17.30;31.40
24091;DHT22;12272;52.426;17.100;2023-05-10T08:57:08;17.60;32.50
24091;DHT22;12272;52.426;17.100;2023-05-10T09:02:13;17.70;35.70
24091;DHT22;12272;52.426;17.100;2023-05-10T09:07:19;17.80;34.30
24091;DHT22;12272;52.426;17.100;2023-05-10T09:12:22;17.90;37.00
24091;DHT22;12272;52.426;17.100;2023-05-10T09:17:25;18.00;33.00
24091;DHT22;12272;52.426;17.100;2023-05-10T09:22:33;18.10;35.00
24091;DHT22;12272;52.426;17.100;2023-05-10T09:27:37;18.00;30.00
24091;DHT22;12272;52.426;17.100;2023-05-10T09:32:41;18.20;32.90
24091;DHT22;12272;52.426;17.100;2023-05-10T09:37:50;18.20;30.90
24091;DHT22;12272;52.426;17.100;2023-05-10T09:42:58;18.20;29.10
24091;DHT22;12272;52.426;17.100;2023-05-10T09:48:02;18.20;27.30
24091;DHT22;12272;52.426;17.100;2023-05-10T09:53:05;18.10;28.30
24091;DHT22;12272;52.426;17.100;2023-05-10T09:58:07;18.00;29.70
24091;DHT22;12272;52.426;17.100;2023-05-10T10:03:15;18.00;30.80
24091;DHT22;12272;52.426;17.100;2023-05-10T10:08:17;18.10;26.40
24091;DHT22;12272;52.426;17.100;2023-05-10T10:13:20;18.10;29.80
24091;DHT22;12272;52.426;17.100;2023-05-10T10:18:23;18.20;29.20
24091;DHT22;12272;52.426;17.100;2023-05-10T10:23:29;18.10;30.20
24091;DHT22;12272;52.426;17.100;2023-05-10T10:34:01;18.10;29.80
24091;DHT22;12272;52.426;17.100;2023-05-10T10:39:09;18.20;30.00
24091;DHT22;12272;52.426;17.100;2023-05-10T10:49:27;18.10;26.00
24091;DHT22;12272;52.426;17.100;2023-05-10T10:54:30;18.10;29.80
24091;DHT22;12272;52.426;17.100;2023-05-10T10:59:34;18.10;26.60
24091;DHT22;12272;52.426;17.100;2023-05-10T11:04:43;18.10;27.20
24091;DHT22;12272;52.426;17.100;2023-05-10T11:09:49;18.10;29.20
24091;DHT22;12272;52.426;17.100;2023-05-10T11:14:51;18.20;26.70
24091;DHT22;12272;52.426;17.100;2023-05-10T11:20:10;18.30;26.80
24091;DHT22;12272;52.426;17.100;2023-05-10T11:25:16;18.30;26.30
24091;DHT22;12272;52.426;17.100;2023-05-10T11:30:19;18.30;26.10
24091;DHT22;12272;52.426;17.100;2023-05-10T11:35:22;18.30;27.20
24091;DHT22;12272;52.426;17.100;2023-05-10T11:40:25;18.30;28.00
24091;DHT22;12272;52.426;17.100;2023-05-10T11:45:29;18.50;25.50
24091;DHT22;12272;52.426;17.100;2023-05-10T11:50:32;18.50;27.60
24091;DHT22;12272;52.426;17.100;2023-05-10T11:55:34;18.40;24.90
24091;DHT22;12272;52.426;17.100;2023-05-10T12:00:37;18.30;27.10
24091;DHT22;12272;52.426;17.100;2023-05-10T12:05:40;18.40;26.20
24091;DHT22;12272;52.426;17.100;2023-05-10T12:10:44;18.30;26.00
24091;DHT22;12272;52.426;17.100;2023-05-10T12:15:46;18.40;24.30
24091;DHT22;12272;52.426;17.100;2023-05-10T12:20:52;18.40;23.70
24091;DHT22;12272;52.426;17.100;2023-05-10T12:26:02;18.40;26.20
24091;DHT22;12272;52.426;17.100;2023-05-10T12:31:05;18.40;22.60
24091;DHT22;12272;52.426;17.100;2023-05-10T12:36:13;18.30;23.60
24091;DHT22;12272;52.426;17.100;2023-05-10T12:41:17;18.30;24.60
24091;DHT22;12272;52.426;17.100;2023-05-10T12:46:20;18.50;27.00
24091;DHT22;12272;52.426;17.100;2023-05-10T12:51:22;18.50;23.80
24091;DHT22;12272;52.426;17.100;2023-05-10T12:56:25;18.60;25.70
24091;DHT22;12272;52.426;17.100;2023-05-10T13:01:28;18.60;27.00
24091;DHT22;12272;52.426;17.100;2023-05-10T13:06:30;18.50;25.90
24091;DHT22;12272;52.426;17.100;2023-05-10T13:11:33;18.50;26.30
24091;DHT22;12272;52.426;17.100;2023-05-10T13:16:36;18.60;25.10
24091;DHT22;12272;52.426;17.100;2023-05-10T13:21:38;18.50;26.20
24091;DHT22;12272;52.426;17.100;2023-05-10T13:26:43;18.60;24.40
24091;DHT22;12272;52.426;17.100;2023-05-10T13:31:46;18.70;27.20
24091;DHT22;12272;52.426;17.100;2023-05-10T13:36:48;18.60;23.00
24091;DHT22;12272;52.426;17.100;2023-05-10T13:41:51;18.70;26.60
24091;DHT22;12272;52.426;17.100;2023-05-10T13:46:56;18.70;26.90
24091;DHT22;12272;52.426;17.100;2023-05-10T13:52:00;18.50;26.10
24091;DHT22;12272;52.426;17.100;2023-05-10T13:57:09;18.40;26.40
24091;DHT22;12272;52.426;17.100;2023-05-10T14:02:13;18.40;25.80
24091;DHT22;12272;52.426;17.100;2023-05-10T14:07:16;18.60;25.50
24091;DHT22;12272;52.426;17.100;2023-05-10T14:12:19;18.70;27.90
24091;DHT22;12272;52.426;17.100;2023-05-10T14:17:22;18.60;27.80
24091;DHT22;12272;52.426;17.100;2023-05-10T14:22:25;18.60;26.70
24091;DHT22;12272;52.426;17.100;2023-05-10T14:27:27;18.50;29.70
24091;DHT22;12272;52.426;17.100;2023-05-10T14:32:30;18.50;27.80
24091;DHT22;12272;52.426;17.100;2023-05-10T14:37:34;18.70;28.70
24091;DHT22;12272;52.426;17.100;2023-05-10T14:42:36;18.70;27.30
24091;DHT22;12272;52.426;17.100;2023-05-10T14:47:39;18.80;27.70
24091;DHT22;12272;52.426;17.100;2023-05-10T14:52:42;18.80;28.20
24091;DHT22;12272;52.426;17.100;2023-05-10T14:57:44;18.70;28.60
24091;DHT22;12272;52.426;17.100;2023-05-10T15:02:49;18.70;27.50
24091;DHT22;12272;52.426;17.100;2023-05-10T15:07:52;18.80;28.50
24091;DHT22;12272;52.426;17.100;2023-05-10T15:12:55;18.80;28.50
24091;DHT22;12272;52.426;17.100;2023-05-10T15:17:58;18.90;28.80
24091;DHT22;12272;52.426;17.100;2023-05-10T15:23:00;18.70;26.50
24091;DHT22;12272;52.426;17.100;2023-05-10T15:28:04;18.60;30.00
24091;DHT22;12272;52.426;17.100;2023-05-10T15:33:07;18.50;28.40
24091;DHT22;12272;52.426;17.100;2023-05-10T15:38:10;18.30;28.10
24091;DHT22;12272;52.426;17.100;2023-05-10T15:43:14;18.40;29.00
24091;DHT22;12272;52.426;17.100;2023-05-10T15:48:17;18.40;26.60
24091;DHT22;12272;52.426;17.100;2023-05-10T15:53:19;18.30;27.80
24091;DHT22;12272;52.426;17.100;2023-05-10T15:58:22;18.40;27.20
24091;DHT22;12272;52.426;17.100;2023-05-10T16:03:25;18.60;28.10
24091;DHT22;12272;52.426;17.100;2023-05-10T16:08:27;18.90;28.40
24091;DHT22;12272;52.426;17.100;2023-05-10T16:13:34;19.20;26.50
24091;DHT22;12272;52.426;17.100;2023-05-10T16:18:37;19.20;26.30
24091;DHT22;12272;52.426;17.100;2023-05-10T16:23:40;19.60;27.00
24091;DHT22;12272;52.426;17.100;2023-05-10T16:28:42;19.70;25.80
24091;DHT22;12272;52.426;17.100;2023-05-10T16:33:45;19.90;26.80
24091;DHT22;12272;52.426;17.100;2023-05-10T16:38:47;19.90;26.00
24091;DHT22;12272;52.426;17.100;2023-05-10T16:43:50;20.00;26.10
24091;DHT22;12272;52.426;17.100;2023-05-10T16:48:53;20.00;27.10
24091;DHT22;12272;52.426;17.100;2023-05-10T16:53:55;20.10;26.60
24091;DHT22;12272;52.426;17.100;2023-05-10T16:58:58;20.00;26.40
24091;DHT22;12272;52.426;17.100;2023-05-10T17:04:01;19.90;26.10
24091;DHT22;12272;52.426;17.100;2023-05-10T17:09:04;19.90;26.90
24091;DHT22;12272;52.426;17.100;2023-05-10T17:14:07;19.80;26.80
24091;DHT22;12272;52.426;17.100;2023-05-10T17:19:09;19.60;26.40
24091;DHT22;12272;52.426;17.100;2023-05-10T17:24:13;19.40;25.90
24091;DHT22;12272;52.426;17.100;2023-05-10T17:29:15;19.30;25.20
24091;DHT22;12272;52.426;17.100;2023-05-10T17:34:18;19.00;27.40
24091;DHT22;12272;52.426;17.100;2023-05-10T17:39:20;18.80;26.20
24091;DHT22;12272;52.426;17.100;2023-05-10T17:44:23;18.60;27.20
24091;DHT22;12272;52.426;17.100;2023-05-10T17:49:27;18.40;27.10
24091;DHT22;12272;52.426;17.100;2023-05-10T17:54:29;18.10;28.20
24091;DHT22;12272;52.426;17.100;2023-05-10T17:59:32;17.70;28.20
24091;DHT22;12272;52.426;17.100;2023-05-10T18:04:34;17.50;34.30
24091;DHT22;12272;52.426;17.100;2023-05-10T18:09:37;17.40;31.90
24091;DHT22;12272;52.426;17.100;2023-05-10T18:14:39;17.10;32.80
24091;DHT22;12272;52.426;17.100;2023-05-10T18:19:43;16.90;35.60
24091;DHT22;12272;52.426;17.100;2023-05-10T18:24:45;16.70;34.50
24091;DHT22;12272;52.426;17.100;2023-05-10T18:29:48;16.40;39.10
24091;DHT22;12272;52.426;17.100;2023-05-10T18:34:50;16.10;39.40
24091;DHT22;12272;52.426;17.100;2023-05-10T18:39:56;15.80;40.10
24091;DHT22;12272;52.426;17.100;2023-05-10T18:44:58;15.60;41.40
24091;DHT22;12272;52.426;17.100;2023-05-10T18:50:03;15.30;43.80
24091;DHT22;12272;52.426;17.100;2023-05-10T18:55:08;15.20;48.30
24091;DHT22;12272;52.426;17.100;2023-05-10T19:00:11;15.00;50.80
24091;DHT22;12272;52.426;17.100;2023-05-10T19:05:15;14.90;52.50
24091;DHT22;12272;52.426;17.100;2023-05-10T19:10:17;14.70;52.90
24091;DHT22;12272;52.426;17.100;2023-05-10T19:15:20;14.50;51.80
24091;DHT22;12272;52.426;17.100;2023-05-10T19:20:23;14.40;54.30
24091;DHT22;12272;52.426;17.100;2023-05-10T19:25:26;14.20;56.80
24091;DHT22;12272;52.426;17.100;2023-05-10T19:30:30;14.10;57.50
24091;DHT22;12272;52.426;17.100;2023-05-10T19:35:33;13.80;59.30
24091;DHT22;12272;52.426;17.100;2023-05-10T19:45:39;13.60;64.30
24091;DHT22;12272;52.426;17.100;2023-05-10T19:50:42;13.60;66.10
24091;DHT22;12272;52.426;17.100;2023-05-10T19:55:45;13.50;72.90
24091;DHT22;12272;52.426;17.100;2023-05-10T20:00:47;13.40;69.60
24091;DHT22;12272;52.426;17.100;2023-05-10T20:05:51;13.30;70.40
24091;DHT22;12272;52.426;17.100;2023-05-10T20:10:54;13.20;76.60
24091;DHT22;12272;52.426;17.100;2023-05-10T20:16:00;13.20;76.30
24091;DHT22;12272;52.426;17.100;2023-05-10T20:21:03;13.10;78.60
24091;DHT22;12272;52.426;17.100;2023-05-10T20:26:06;13.10;76.10
24091;DHT22;12272;52.426;17.100;2023-05-10T20:31:08;13.20;78.70
24091;DHT22;12272;52.426;17.100;2023-05-10T20:36:11;13.40;75.00
24091;DHT22;12272;52.426;17.100;2023-05-10T20:41:14;13.40;68.00
24091;DHT22;12272;52.426;17.100;2023-05-10T20:46:16;13.50;70.50
24091;DHT22;12272;52.426;17.100;2023-05-10T20:51:19;13.50;68.60
24091;DHT22;12272;52.426;17.100;2023-05-10T20:56:21;13.60;75.50
24091;DHT22;12272;52.426;17.100;2023-05-10T21:01:24;13.60;71.80
24091;DHT22;12272;52.426;17.100;2023-05-10T21:06:27;13.60;69.50
24091;DHT22;12272;52.426;17.100;2023-05-10T21:11:32;13.60;71.00
24091;DHT22;12272;52.426;17.100;2023-05-10T21:16:37;13.60;74.00
24091;DHT22;12272;52.426;17.100;2023-05-10T21:21:40;13.50;64.50
24091;DHT22;12272;52.426;17.100;2023-05-10T21:26:42;13.50;64.80
24091;DHT22;12272;52.426;17.100;2023-05-10T21:31:45;13.40;66.30
24091;DHT22;12272;52.426;17.100;2023-05-10T21:36:47;13.30;71.80
24091;DHT22;12272;52.426;17.100;2023-05-10T21:41:50;13.20;67.70
24091;DHT22;12272;52.426;17.100;2023-05-10T21:46:53;13.00;71.40
24091;DHT22;12272;52.426;17.100;2023-05-10T21:51:56;12.90;70.50
24091;DHT22;12272;52.426;17.100;2023-05-10T21:56:58;13.00;78.70
24091;DHT22;12272;52.426;17.100;2023-05-10T22:02:01;12.90;76.40
24091;DHT22;12272;52.426;17.100;2023-05-10T22:07:03;12.70;74.20
24091;DHT22;12272;52.426;17.100;2023-05-10T22:12:06;12.60;77.70
24091;DHT22;12272;52.426;17.100;2023-05-10T22:17:09;12.30;66.80
24091;DHT22;12272;52.426;17.100;2023-05-10T22:22:12;11.30;69.60
24091;DHT22;12272;52.426;17.100;2023-05-10T22:27:14;11.40;79.70
24091;DHT22;12272;52.426;17.100;2023-05-10T22:32:17;11.60;85.10
24091;DHT22;12272;52.426;17.100;2023-05-10T22:37:19;11.80;89.50
24091;DHT22;12272;52.426;17.100;2023-05-10T22:42:22;12.00;80.70
24091;DHT22;12272;52.426;17.100;2023-05-10T22:47:25;12.20;89.40
24091;DHT22;12272;52.426;17.100;2023-05-10T22:52:27;12.50;77.70
24091;DHT22;12272;52.426;17.100;2023-05-10T22:57:30;12.50;82.50
24091;DHT22;12272;52.426;17.100;2023-05-10T23:02:33;12.60;88.10
24091;DHT22;12272;52.426;17.100;2023-05-10T23:07:35;12.50;77.80
24091;DHT22;12272;52.426;17.100;2023-05-10T23:12:38;12.70;87.80
24091;DHT22;12272;52.426;17.100;2023-05-10T23:17:40;12.70;78.80
24091;DHT22;12272;52.426;17.100;2023-05-10T23:22:43;12.70;68.80
24091;DHT22;12272;52.426;17.100;2023-05-10T23:27:46;12.70;75.70
24091;DHT22;12272;52.426;17.100;2023-05-10T23:32:49;12.80;72.80
24091;DHT22;12272;52.426;17.100;2023-05-10T23:37:51;12.80;67.20
24091;DHT22;12272;52.426;17.100;2023-05-10T23:42:54;12.80;72.90
24091;DHT22;12272;52.426;17.100;2023-05-10T23:47:57;12.80;71.40
24091;DHT22;12272;52.426;17.100;2023-05-10T23:52:59;12.80;63.10
24091;DHT22;12272;52.426;17.100;2023-05-10T23:58:02;12.70;72.70
